Time;durP1;ratioP1;P1;durP2;ratioP2;P2;SDS_P1;SDS_P2;PMS_P1;PMS_P2;Temp;Humidity;BMP_temperature;BMP_pressure;BME280_temperature;BME280_humidity;BME280_pressure;Samples;Min_cycle;Max_cycle;Signal;HPM_P1;HPM_P2
2023/03/15 00:02:23;;;;;;;;;;;;;;;2.51;90.51;99789.28;5132314;27;19915;-73
2023/03/15 00:04:50;;;;;;;;;;;;;;;2.41;91.19;99782.78;5118406;27;19974;-68
2023/03/15 00:07:15;;;;;;;;;;;;;;;2.28;92.64;99785.38;5111505;27;19916;-70
2023/03/15 00:09:40;;;;;;;;;;;;;;;2.29;92.78;99772.72;5120825;27;19964;-70
2023/03/15 00:12:06;;;;;;;;;;;;;;;2.39;92.14;99775.06;5115050;27;19922;-70
2023/03/15 00:14:31;;;;;;;;;;;;;;;2.31;93.24;99765.19;5122455;27;20305;-72
2023/03/15 00:16:56;;;;;;;;;;;;;;;2.36;93.33;99753.59;5111079;27;20385;-69
2023/03/15 00:19:22;;;;;;;;;;;;;;;2.42;92.99;99751.41;5131468;27;19907;-69
2023/03/15 00:21:47;;;;;;;;;;;;;;;2.58;91.99;99750.63;5131904;27;19912;-71
2023/03/15 00:24:12;;;;;;;;;;;;;;;2.59;91.73;99753.25;5132161;27;19907;-71
2023/03/15 00:26:37;;;;;;;;;;;;;;;2.49;92.33;99745.00;5132205;27;19911;-66
2023/03/15 00:29:03;;;;;;;;;;;;;;;2.54;93.16;99748.69;5131456;27;19919;-70
2023/03/15 00:31:28;;;;;;;;;;;;;;;2.42;93.24;99748.88;5132063;27;20277;-67
2023/03/15 00:33:54;;;;;;;;;;;;;;;2.57;93.33;99748.88;5131879;27;19911;-70
2023/03/15 00:36:22;;;;;;;;;;;;;;;2.44;93.22;99739.63;5131904;27;20388;-69
2023/03/15 00:38:48;;;;;;;;;;;;;;;2.42;94.92;99733.59;5131884;27;19911;-69
2023/03/15 00:41:15;;;;;;;;;;;;;;;2.65;93.66;99732.31;5131838;28;20293;-69
2023/03/15 00:43:41;;;;;;;;;;;;;;;2.42;93.02;99723.41;5113243;28;20448;-70
2023/03/15 00:46:06;;;;;;;;;;;;;;;2.39;93.73;99713.91;5131703;28;19990;-67
2023/03/15 00:48:33;;;;;;;;;;;;;;;2.58;93.44;99710.72;5131659;28;19911;-70
2023/03/15 00:51:20;;;;;;;;;;;;;;;2.80;92.38;99706.81;5131338;28;19912;-65
2023/03/15 00:53:46;;;;;;;;;;;;;;;2.95;92.68;99700.81;5131672;28;19919;-67
2023/03/15 00:56:16;;;;;;;;;;;;;;;3.05;91.57;99695.44;5131870;28;19911;-70
2023/03/15 00:58:42;;;;;;;;;;;;;;;2.91;91.30;99699.78;5131700;28;19939;-67
2023/03/15 01:01:08;;;;;;;;;;;;;;;2.61;93.69;99699.81;5078150;28;19958;-67
2023/03/15 01:03:33;;;;;;;;;;;;;;;2.66;92.60;99690.75;5131486;28;19922;-70
2023/03/15 01:09:01;;;;;;;;;;;;;;;2.66;91.95;99688.22;5283467;22;20313;-69
2023/03/15 01:11:27;;;;;;;;;;;;;;;2.77;91.30;99680.28;5111147;28;19912;-69
2023/03/15 01:13:53;;;;;;;;;;;;;;;2.53;91.57;99645.00;5094027;28;19916;-69
2023/03/15 01:16:18;;;;;;;;;;;;;;;2.77;92.86;99667.53;5097651;28;19993;-69
2023/03/15 01:18:44;;;;;;;;;;;;;;;2.67;94.07;99669.59;5110743;28;20338;-70
2023/03/15 01:21:10;;;;;;;;;;;;;;;2.82;94.55;99663.59;5111099;28;20422;-69
2023/03/15 01:23:35;;;;;;;;;;;;;;;2.55;95.50;99668.91;5110948;28;19911;-70
2023/03/15 01:26:01;;;;;;;;;;;;;;;2.37;97.76;99662.00;5110904;28;19912;-73
2023/03/15 01:28:27;;;;;;;;;;;;;;;2.16;100.00;99654.00;5110777;28;20290;-70
2023/03/15 01:30:52;;;;;;;;;;;;;;;2.23;100.00;99658.66;5111444;28;19912;-69
2023/03/15 01:33:18;;;;;;;;;;;;;;;2.23;100.00;99647.56;5110610;28;19911;-70
2023/03/15 01:35:43;;;;;;;;;;;;;;;2.16;99.63;99648.91;5110889;28;20370;-72
2023/03/15 01:38:08;;;;;;;;;;;;;;;2.00;100.00;99644.59;5110677;28;19908;-67
2023/03/15 01:40:34;;;;;;;;;;;;;;;1.94;100.00;99641.69;5110597;28;19912;-67
2023/03/15 01:43:05;;;;;;;;;;;;;;;2.06;99.78;99636.44;5111143;28;19964;-69
2023/03/15 01:45:49;;;;;;;;;;;;;;;2.01;98.64;99638.72;5111455;28;20305;-69
2023/03/15 01:48:15;;;;;;;;;;;;;;;1.86;98.86;99648.91;5114367;28;19914;-67
2023/03/15 01:50:40;;;;;;;;;;;;;;;1.72;99.74;99640.47;5114436;28;19911;-71
2023/03/15 01:53:06;;;;;;;;;;;;;;;1.81;99.19;99640.13;5114351;28;19920;-68
2023/03/15 01:55:31;;;;;;;;;;;;;;;1.81;98.99;99644.31;5114649;28;19916;-71
2023/03/15 01:57:59;;;;;;;;;;;;;;;1.82;99.10;99653.72;5114499;28;19920;-67
2023/03/15 02:00:24;;;;;;;;;;;;;;;1.84;98.44;99650.47;5114283;28;19946;-69
2023/03/15 02:02:50;;;;;;;;;;;;;;;1.76;98.33;99642.38;5114104;28;19966;-67
2023/03/15 02:05:20;;;;;;;;;;;;;;;1.78;98.47;99643.38;5114435;28;19912;-68
2023/03/15 02:07:48;;;;;;;;;;;;;;;1.82;98.35;99648.63;5061104;28;19959;-69
2023/03/15 02:10:16;;;;;;;;;;;;;;;1.78;98.63;99642.47;5114333;28;19911;-69
2023/03/15 02:12:44;;;;;;;;;;;;;;;1.68;99.35;99647.81;5113936;28;19912;-70
2023/03/15 02:15:10;;;;;;;;;;;;;;;1.47;100.00;99642.31;5106166;28;19973;-71
2023/03/15 02:17:37;;;;;;;;;;;;;;;1.45;100.00;99634.63;5113994;28;20316;-70
2023/03/15 02:20:14;;;;;;;;;;;;;;;1.59;100.00;99630.34;5113760;28;19998;-67
2023/03/15 02:22:40;;;;;;;;;;;;;;;1.71;99.71;99628.53;5113972;28;19978;-67
2023/03/15 02:25:15;;;;;;;;;;;;;;;1.79;99.20;99631.50;5113845;28;20377;-69
2023/03/15 02:27:40;;;;;;;;;;;;;;;1.71;99.54;99627.66;5077488;28;19911;-66
2023/03/15 02:30:06;;;;;;;;;;;;;;;1.68;100.00;99633.41;5113310;28;20427;-72
2023/03/15 02:32:31;;;;;;;;;;;;;;;1.80;99.57;99645.13;5113773;28;19947;-70
2023/03/15 02:34:56;;;;;;;;;;;;;;;1.76;99.16;99650.03;5113420;28;19919;-69
2023/03/15 02:37:22;;;;;;;;;;;;;;;1.59;99.38;99646.47;5095290;28;19964;-69
2023/03/15 02:39:47;;;;;;;;;;;;;;;1.59;99.94;99640.50;5113143;28;19912;-69
2023/03/15 02:42:12;;;;;;;;;;;;;;;1.69;99.73;99640.25;5113702;28;19912;-66
2023/03/15 02:44:41;;;;;;;;;;;;;;;1.77;98.49;99635.66;5113305;28;19928;-66
2023/03/15 02:47:14;;;;;;;;;;;;;;;1.72;97.98;99643.00;5113439;28;19918;-70
2023/03/15 02:49:42;;;;;;;;;;;;;;;1.64;98.09;99648.44;5113363;28;19922;-70
2023/03/15 02:52:08;;;;;;;;;;;;;;;1.78;97.46;99648.47;5113082;28;19968;-68
2023/03/15 02:54:33;;;;;;;;;;;;;;;1.81;96.90;99651.94;5113336;28;19915;-69
2023/03/15 02:57:02;;;;;;;;;;;;;;;1.69;96.92;99650.44;5112563;28;19915;-65
2023/03/15 02:59:27;;;;;;;;;;;;;;;1.57;96.92;99649.72;5105619;28;19922;-68
2023/03/15 03:01:52;;;;;;;;;;;;;;;1.44;98.97;99651.53;5105715;28;20401;-70
2023/03/15 03:04:18;;;;;;;;;;;;;;;1.43;99.23;99649.78;5112791;28;19922;-65
2023/03/15 03:06:43;;;;;;;;;;;;;;;1.39;99.44;99659.69;5094870;28;19990;-65
2023/03/15 03:09:09;;;;;;;;;;;;;;;1.27;99.86;99650.53;5112634;28;19941;-69
2023/03/15 03:11:34;;;;;;;;;;;;;;;1.30;99.93;99654.91;5112919;28;19938;-69
2023/03/15 03:14:00;;;;;;;;;;;;;;;1.18;100.00;99659.25;5112509;28;19911;-66
2023/03/15 03:16:25;;;;;;;;;;;;;;;1.20;100.00;99647.53;5112952;28;19977;-73
2023/03/15 03:18:50;;;;;;;;;;;;;;;1.34;99.83;99636.50;5112656;28;19916;-67
2023/03/15 03:21:16;;;;;;;;;;;;;;;1.37;100.00;99645.97;5112442;28;19919;-66
2023/03/15 03:23:44;;;;;;;;;;;;;;;1.43;100.00;99647.25;5111942;28;19923;-69
2023/03/15 03:26:15;;;;;;;;;;;;;;;1.42;99.59;99640.41;5112218;28;19919;-69
2023/03/15 03:28:41;;;;;;;;;;;;;;;1.53;99.23;99643.56;5112205;28;19981;-69
2023/03/15 03:31:06;;;;;;;;;;;;;;;1.51;99.15;99642.63;5112237;28;19911;-68
2023/03/15 03:33:31;;;;;;;;;;;;;;;1.48;99.59;99641.56;5093967;28;19939;-65
2023/03/15 03:36:00;;;;;;;;;;;;;;;1.32;100.00;99634.66;5112297;28;20077;-67
2023/03/15 03:38:26;;;;;;;;;;;;;;;1.23;100.00;99630.75;5111872;28;20369;-68
2023/03/15 03:40:51;;;;;;;;;;;;;;;1.12;100.00;99625.03;5112364;28;19955;-65
2023/03/15 03:43:16;;;;;;;;;;;;;;;1.10;100.00;99636.78;5112071;28;19934;-70
2023/03/15 03:45:42;;;;;;;;;;;;;;;1.06;100.00;99634.84;5112125;28;19911;-69
2023/03/15 03:48:07;;;;;;;;;;;;;;;1.03;100.00;99631.22;5111993;28;19990;-66
2023/03/15 03:50:33;;;;;;;;;;;;;;;1.00;100.00;99625.94;5111636;28;19957;-66
2023/03/15 03:52:58;;;;;;;;;;;;;;;0.93;100.00;99615.41;5111462;28;19915;-67
2023/03/15 03:55:24;;;;;;;;;;;;;;;0.88;100.00;99631.16;5112186;28;19912;-69
2023/03/15 03:57:49;;;;;;;;;;;;;;;0.90;100.00;99635.56;5111807;28;19908;-66
2023/03/15 04:00:15;;;;;;;;;;;;;;;0.81;100.00;99637.53;5111729;28;20285;-69
2023/03/15 04:02:41;;;;;;;;;;;;;;;0.85;100.00;99641.13;5075192;28;19922;-66
2023/03/15 04:05:07;;;;;;;;;;;;;;;0.86;100.00;99636.16;5111534;28;20369;-66
2023/03/15 04:07:33;;;;;;;;;;;;;;;0.88;100.00;99641.31;5110925;28;20269;-69
2023/03/15 04:09:58;;;;;;;;;;;;;;;0.74;100.00;99631.19;5111596;28;19922;-66
2023/03/15 04:12:23;;;;;;;;;;;;;;;0.76;100.00;99628.72;5111399;28;19920;-69
2023/03/15 04:14:48;;;;;;;;;;;;;;;0.76;100.00;99624.53;5111546;28;19924;-70
2023/03/15 04:17:14;;;;;;;;;;;;;;;0.76;100.00;99624.53;5111157;28;20006;-67
2023/03/15 04:19:39;;;;;;;;;;;;;;;0.61;100.00;99628.66;5111287;28;19916;-66
2023/03/15 04:22:05;;;;;;;;;;;;;;;0.63;100.00;99624.56;5110608;28;20614;-69
2023/03/15 04:24:34;;;;;;;;;;;;;;;0.76;100.00;99611.84;5111287;28;19915;-66
2023/03/15 04:26:59;;;;;;;;;;;;;;;0.94;100.00;99618.84;5111179;28;19912;-68
2023/03/15 04:29:24;;;;;;;;;;;;;;;1.02;100.00;99617.63;5109141;28;19972;-69
2023/03/15 04:31:50;;;;;;;;;;;;;;;1.05;100.00;99617.81;5092674;28;20431;-66
2023/03/15 04:34:15;;;;;;;;;;;;;;;1.01;100.00;99608.28;5102113;28;19916;-68
2023/03/15 04:36:41;;;;;;;;;;;;;;;1.03;100.00;99606.69;5111188;28;19916;-68
2023/03/15 04:39:06;;;;;;;;;;;;;;;1.03;100.00;99613.44;5111002;28;20286;-66
2023/03/15 04:41:33;;;;;;;;;;;;;;;1.10;100.00;99610.50;5111091;28;20010;-68
2023/03/15 04:43:59;;;;;;;;;;;;;;;1.20;100.00;99604.31;5111069;28;20331;-66
2023/03/15 04:46:24;;;;;;;;;;;;;;;1.31;100.00;99603.28;5111073;28;19912;-66
2023/03/15 04:48:50;;;;;;;;;;;;;;;1.50;100.00;99609.47;5111315;28;19962;-68
2023/03/15 04:51:15;;;;;;;;;;;;;;;1.59;100.00;99598.13;5110539;28;19911;-68
2023/03/15 04:53:40;;;;;;;;;;;;;;;1.65;100.00;99592.53;5111008;28;19911;-71
2023/03/15 04:56:06;;;;;;;;;;;;;;;1.58;100.00;99603.13;5110776;28;19935;-69
2023/03/15 04:58:31;;;;;;;;;;;;;;;1.28;100.00;99606.53;5111036;28;19911;-65
2023/03/15 05:00:56;;;;;;;;;;;;;;;1.20;100.00;99601.75;5111249;28;19911;-69
2023/03/15 05:03:22;;;;;;;;;;;;;;;1.27;100.00;99599.66;5111674;28;19915;-66
2023/03/15 05:05:47;;;;;;;;;;;;;;;1.36;100.00;99608.63;5074688;28;19920;-66
2023/03/15 05:08:12;;;;;;;;;;;;;;;1.33;100.00;99601.69;5110665;28;19920;-66
2023/03/15 05:10:37;;;;;;;;;;;;;;;1.40;100.00;99608.03;5110735;28;20451;-66
2023/03/15 05:13:03;;;;;;;;;;;;;;;1.48;100.00;99614.44;5101870;28;19916;-69
2023/03/15 05:15:28;;;;;;;;;;;;;;;1.53;100.00;99607.09;5104793;28;20383;-66
2023/03/15 05:17:54;;;;;;;;;;;;;;;1.53;100.00;99612.16;5101608;28;19915;-70
2023/03/15 05:20:20;;;;;;;;;;;;;;;1.57;100.00;99606.47;5119342;27;19930;-70
2023/03/15 05:22:45;;;;;;;;;;;;;;;1.71;100.00;99604.75;5120193;27;20385;-69
2023/03/15 05:25:11;;;;;;;;;;;;;;;1.75;100.00;99593.97;5117365;27;19961;-71
2023/03/15 05:27:37;;;;;;;;;;;;;;;1.89;100.00;99597.28;5114966;28;20365;-67
2023/03/15 05:30:03;;;;;;;;;;;;;;;1.95;100.00;99600.19;5114839;28;20446;-68
2023/03/15 05:32:33;;;;;;;;;;;;;;;1.99;100.00;99596.16;5114945;28;20011;-69
2023/03/15 05:34:58;;;;;;;;;;;;;;;1.98;100.00;99592.75;5114536;28;20328;-69
2023/03/15 05:37:23;;;;;;;;;;;;;;;2.15;100.00;99603.00;5115045;28;19938;-67
2023/03/15 05:39:48;;;;;;;;;;;;;;;2.01;100.00;99603.09;5115048;28;19916;-66
2023/03/15 05:42:15;;;;;;;;;;;;;;;1.68;100.00;99569.81;5114527;28;20376;-65
2023/03/15 05:44:40;;;;;;;;;;;;;;;1.82;100.00;99595.19;5114962;28;19958;-70
2023/03/15 05:47:05;;;;;;;;;;;;;;;1.73;100.00;99582.78;5114522;28;19955;-69
2023/03/15 05:49:32;;;;;;;;;;;;;;;1.76;100.00;99583.84;5114645;28;20001;-66
2023/03/15 05:51:57;;;;;;;;;;;;;;;1.88;100.00;99580.25;5078695;28;19947;-72
2023/03/15 05:54:23;;;;;;;;;;;;;;;1.70;100.00;99580.97;5114638;28;19911;-67
2023/03/15 05:56:48;;;;;;;;;;;;;;;1.87;100.00;99579.41;5125278;27;19958;-67
2023/03/15 05:59:13;;;;;;;;;;;;;;;2.07;100.00;99575.44;5117807;27;20413;-70
2023/03/15 06:01:39;;;;;;;;;;;;;;;2.27;100.00;99565.47;5124184;27;19951;-69
2023/03/15 06:04:04;;;;;;;;;;;;;;;2.34;100.00;99566.69;5123015;27;20309;-69
2023/03/15 06:06:29;;;;;;;;;;;;;;;2.47;100.00;99566.56;5124904;27;19922;-72
2023/03/15 06:08:54;;;;;;;;;;;;;;;2.40;100.00;99565.34;5123296;27;20340;-68
2023/03/15 06:11:20;;;;;;;;;;;;;;;2.52;100.00;99565.16;5123388;27;20369;-69
2023/03/15 06:13:46;;;;;;;;;;;;;;;2.53;100.00;99566.00;5063545;27;20718;-69
2023/03/15 06:16:11;;;;;;;;;;;;;;;2.61;100.00;99574.09;5120117;27;19938;-72
2023/03/15 06:18:36;;;;;;;;;;;;;;;2.63;100.00;99569.94;5124142;27;20376;-70
2023/03/15 06:21:01;;;;;;;;;;;;;;;2.70;100.00;99583.09;5123894;27;19985;-68
2023/03/15 06:23:27;;;;;;;;;;;;;;;2.91;100.00;99579.94;5121863;27;19922;-69
2023/03/15 06:25:52;;;;;;;;;;;;;;;3.07;100.00;99582.50;5122563;27;20388;-69
2023/03/15 06:28:18;;;;;;;;;;;;;;;3.19;100.00;99578.84;5119451;27;19916;-70
2023/03/15 06:30:44;;;;;;;;;;;;;;;3.22;100.00;99595.19;5120299;27;19912;-70
2023/03/15 06:33:09;;;;;;;;;;;;;;;3.24;100.00;99597.84;5119798;27;19911;-64
2023/03/15 06:35:34;;;;;;;;;;;;;;;3.18;100.00;99597.53;5111572;27;20420;-70
2023/03/15 06:38:00;;;;;;;;;;;;;;;3.12;100.00;99597.19;5113880;28;19911;-71
2023/03/15 06:40:25;;;;;;;;;;;;;;;3.10;100.00;99589.44;5095535;28;20281;-74
2023/03/15 06:42:50;;;;;;;;;;;;;;;3.32;100.00;99595.69;5113571;28;19941;-68
2023/03/15 06:45:15;;;;;;;;;;;;;;;3.53;100.00;99599.31;5113389;28;19907;-67
2023/03/15 06:47:41;;;;;;;;;;;;;;;3.68;100.00;99596.66;5116076;27;19915;-66
2023/03/15 06:50:06;;;;;;;;;;;;;;;3.78;99.69;99597.16;5133113;27;19915;-72
2023/03/15 06:52:32;;;;;;;;;;;;;;;3.95;99.97;99590.31;5121717;27;20396;-73
2023/03/15 06:54:57;;;;;;;;;;;;;;;4.12;100.00;99588.56;5122440;27;20002;-72
2023/03/15 06:57:22;;;;;;;;;;;;;;;4.34;100.00;99585.38;5123725;27;20352;-75
2023/03/15 06:59:48;;;;;;;;;;;;;;;4.37;100.00;99586.41;5120425;27;20266;-72
2023/03/15 07:02:14;;;;;;;;;;;;;;;4.49;98.15;99591.22;5121118;27;19919;-77
2023/03/15 07:04:39;;;;;;;;;;;;;;;4.56;98.09;99604.28;5119476;27;20449;-72
2023/03/15 07:07:05;;;;;;;;;;;;;;;4.43;98.04;99603.69;5131987;27;19998;-72
2023/03/15 07:09:30;;;;;;;;;;;;;;;4.42;98.46;99598.50;5097081;27;20002;-68
2023/03/15 07:11:55;;;;;;;;;;;;;;;4.32;100.00;99592.09;5124230;27;19918;-67
2023/03/15 07:14:21;;;;;;;;;;;;;;;4.30;100.00;99579.25;5113690;27;19923;-69
2023/03/15 07:16:48;;;;;;;;;;;;;;;4.45;99.50;99575.66;5113166;27;19918;-71
2023/03/15 07:19:13;;;;;;;;;;;;;;;4.48;98.84;99569.00;5118360;27;19911;-69
2023/03/15 07:21:41;;;;;;;;;;;;;;;4.48;99.46;99578.38;5077717;28;20014;-69
2023/03/15 07:24:06;;;;;;;;;;;;;;;4.53;98.84;99572.63;5114428;27;19915;-68
2023/03/15 07:26:32;;;;;;;;;;;;;;;4.71;98.61;99561.53;5123114;27;20420;-66
2023/03/15 07:28:57;;;;;;;;;;;;;;;4.89;97.56;99561.50;5115797;27;19988;-69
2023/03/15 07:31:22;;;;;;;;;;;;;;;4.98;97.01;99566.13;5111598;28;20351;-70
2023/03/15 07:33:48;;;;;;;;;;;;;;;5.11;97.87;99565.88;5121208;27;19915;-69
2023/03/15 07:36:13;;;;;;;;;;;;;;;5.16;97.13;99564.41;5115719;27;19912;-69
2023/03/15 07:38:39;;;;;;;;;;;;;;;5.25;97.03;99558.81;5112516;28;19912;-67
2023/03/15 07:41:05;;;;;;;;;;;;;;;5.23;96.23;99559.53;5112691;28;19919;-67
2023/03/15 07:43:30;;;;;;;;;;;;;;;5.36;95.74;99551.59;5112096;28;20555;-70
2023/03/15 07:45:55;;;;;;;;;;;;;;;5.45;93.48;99551.13;5112615;28;19915;-66
2023/03/15 07:48:21;;;;;;;;;;;;;;;5.46;96.91;99548.63;5111854;28;19912;-71
2023/03/15 07:50:46;;;;;;;;;;;;;;;5.58;93.16;99548.28;5112381;28;20002;-69
2023/03/15 07:53:11;;;;;;;;;;;;;;;5.68;92.96;99536.69;5111289;28;19951;-66
2023/03/15 07:55:37;;;;;;;;;;;;;;;5.89;93.31;99525.59;5112559;28;19989;-72
2023/03/15 07:58:02;;;;;;;;;;;;;;;5.93;91.38;99528.34;5112148;28;20433;-66
2023/03/15 08:00:28;;;;;;;;;;;;;;;6.01;92.47;99521.00;5112485;28;19922;-67
2023/03/15 08:02:54;;;;;;;;;;;;;;;6.14;92.44;99523.25;5112318;28;19949;-72
2023/03/15 08:05:19;;;;;;;;;;;;;;;6.14;92.77;99523.25;5112054;28;19946;-70
2023/03/15 08:07:45;;;;;;;;;;;;;;;6.27;89.68;99533.97;5111946;28;19922;-70
2023/03/15 08:10:11;;;;;;;;;;;;;;;6.23;91.07;99532.09;5112054;28;19915;-69
2023/03/15 08:12:38;;;;;;;;;;;;;;;6.32;89.45;99530.75;5111792;28;19911;-66
2023/03/15 08:15:03;;;;;;;;;;;;;;;6.47;87.69;99527.06;5112158;28;19912;-72
2023/03/15 08:17:28;;;;;;;;;;;;;;;6.46;87.68;99525.31;5111709;28;20006;-69
2023/03/15 08:19:54;;;;;;;;;;;;;;;6.60;87.54;99521.56;5112047;28;19911;-70
2023/03/15 08:22:19;;;;;;;;;;;;;;;6.72;87.54;99515.16;5112065;28;20388;-70
2023/03/15 08:24:44;;;;;;;;;;;;;;;6.97;86.32;99511.78;5111655;28;19912;-67
2023/03/15 08:27:10;;;;;;;;;;;;;;;7.07;85.07;99510.41;5109522;28;20416;-67
2023/03/15 08:29:36;;;;;;;;;;;;;;;7.11;84.96;99502.84;5104886;28;19918;-70
2023/03/15 08:32:02;;;;;;;;;;;;;;;7.25;84.59;99500.81;5090903;28;20332;-68
2023/03/15 08:34:27;;;;;;;;;;;;;;;7.45;83.80;99495.44;5091097;28;20754;-66
2023/03/15 08:36:53;;;;;;;;;;;;;;;7.44;83.33;99486.88;5091148;28;19912;-66
2023/03/15 08:39:18;;;;;;;;;;;;;;;7.44;83.23;99483.47;5097454;28;19912;-69
2023/03/15 08:41:44;;;;;;;;;;;;;;;7.55;83.80;99478.66;5103831;28;19919;-69
2023/03/15 08:44:09;;;;;;;;;;;;;;;7.70;84.21;99476.59;5096649;28;19947;-66
2023/03/15 08:46:35;;;;;;;;;;;;;;;7.94;82.87;99473.06;5098780;28;19950;-69
2023/03/15 08:49:01;;;;;;;;;;;;;;;8.17;81.53;99473.75;5101835;28;20438;-67
2023/03/15 08:51:28;;;;;;;;;;;;;;;8.49;80.59;99473.03;5107494;28;19919;-68
2023/03/15 08:53:53;;;;;;;;;;;;;;;8.64;78.80;99477.75;5128674;28;20003;-69
2023/03/15 08:56:18;;;;;;;;;;;;;;;8.77;77.94;99474.69;5115624;27;20006;-69
2023/03/15 08:58:44;;;;;;;;;;;;;;;8.98;78.93;99468.38;5136375;27;19911;-69
2023/03/15 09:01:10;;;;;;;;;;;;;;;9.17;76.42;99465.47;5136491;27;19915;-69
2023/03/15 09:03:36;;;;;;;;;;;;;;;9.32;76.74;99459.84;5135174;27;19911;-69
2023/03/15 09:06:01;;;;;;;;;;;;;;;9.52;75.30;99455.22;5134127;27;19964;-69
2023/03/15 09:08:26;;;;;;;;;;;;;;;9.63;74.79;99449.44;5133919;27;20583;-69
2023/03/15 09:11:00;;;;;;;;;;;;;;;9.83;74.11;99437.00;5133587;27;20025;-70
2023/03/15 09:13:27;;;;;;;;;;;;;;;9.90;73.73;99431.16;5097489;27;20392;-70
2023/03/15 09:15:52;;;;;;;;;;;;;;;10.03;73.61;99425.47;5133088;27;20033;-69
2023/03/15 09:18:18;;;;;;;;;;;;;;;10.01;74.09;99426.28;5134057;27;19969;-70
2023/03/15 09:20:44;;;;;;;;;;;;;;;10.03;73.93;99422.00;5107578;27;19912;-69
2023/03/15 09:23:09;;;;;;;;;;;;;;;10.12;73.77;99411.00;5094920;28;19951;-69
2023/03/15 09:25:35;;;;;;;;;;;;;;;10.09;73.40;99404.06;5094534;28;19919;-70
2023/03/15 09:28:01;;;;;;;;;;;;;;;10.15;73.77;99393.91;5094362;28;20278;-69
2023/03/15 09:30:27;;;;;;;;;;;;;;;10.16;73.73;99389.63;5095000;28;19926;-69
2023/03/15 09:32:53;;;;;;;;;;;;;;;10.23;73.49;99393.19;5094710;28;19934;-69
2023/03/15 09:35:19;;;;;;;;;;;;;;;10.24;73.29;99377.75;5094582;28;20370;-69
2023/03/15 09:37:44;;;;;;;;;;;;;;;10.27;71.76;99387.25;5094539;28;19916;-70
2023/03/15 09:40:21;;;;;;;;;;;;;;;10.36;74.14;99383.19;5094352;28;19916;-70
2023/03/15 09:42:49;;;;;;;;;;;;;;;10.59;69.86;99389.66;5092903;28;19919;-69
2023/03/15 09:45:25;;;;;;;;;;;;;;;10.62;68.84;99376.81;5093947;28;20010;-69
2023/03/15 09:47:58;;;;;;;;;;;;;;;10.65;68.31;99384.59;5094324;28;19912;-70
2023/03/15 09:50:42;;;;;;;;;;;;;;;10.74;68.08;99374.47;5108196;28;19919;-67
2023/03/15 09:53:11;;;;;;;;;;;;;;;10.75;69.69;99371.03;5112877;28;19918;-69
2023/03/15 09:55:36;;;;;;;;;;;;;;;10.81;69.30;99376.28;5113757;28;19916;-68
2023/03/15 09:58:03;;;;;;;;;;;;;;;10.77;68.08;99371.06;5096168;28;19918;-69
2023/03/15 10:00:53;;;;;;;;;;;;;;;10.75;69.78;99376.19;5114150;28;19907;-67
2023/03/15 10:03:34;;;;;;;;;;;;;;;10.81;70.04;99376.28;5081649;28;19998;-67
2023/03/15 10:06:14;;;;;;;;;;;;;;;10.83;68.13;99376.34;5092871;28;19919;-70
2023/03/15 10:08:39;;;;;;;;;;;;;;;10.92;66.06;99370.47;5101370;28;20305;-69
2023/03/15 10:11:04;;;;;;;;;;;;;;;11.06;67.50;99366.41;5113061;27;19919;-69
2023/03/15 10:13:32;;;;;;;;;;;;;;;11.32;66.01;99361.66;5122944;27;20356;-70
2023/03/15 10:15:58;;;;;;;;;;;;;;;11.55;66.50;99356.00;5123089;27;19911;-70
2023/03/15 10:18:32;;;;;;;;;;;;;;;11.76;67.07;99345.09;5123157;27;19961;-68
2023/03/15 10:21:03;;;;;;;;;;;;;;;11.92;62.29;99350.47;5120628;27;20305;-68
2023/03/15 10:23:35;;;;;;;;;;;;;;;12.01;63.76;99350.63;5122544;27;20372;-68
2023/03/15 10:26:02;;;;;;;;;;;;;;;12.13;62.39;99349.91;5121319;27;19999;-69
2023/03/15 10:28:30;;;;;;;;;;;;;;;12.20;62.96;99340.50;5122433;27;19911;-68
2023/03/15 10:30:58;;;;;;;;;;;;;;;12.28;61.40;99336.31;5109093;27;19915;-69
2023/03/15 10:33:30;;;;;;;;;;;;;;;12.54;64.81;99330.56;5123423;27;20320;-68
2023/03/15 10:35:56;;;;;;;;;;;;;;;12.82;59.07;99331.66;5118847;27;19911;-73
2023/03/15 10:38:23;;;;;;;;;;;;;;;13.13;61.38;99318.13;5113711;28;19911;-72
2023/03/15 10:40:52;;;;;;;;;;;;;;;13.35;60.45;99312.25;5113696;28;20391;-70
2023/03/15 10:43:23;;;;;;;;;;;;;;;13.52;59.90;99303.75;5116857;27;19939;-70
2023/03/15 10:45:59;;;;;;;;;;;;;;;13.56;56.21;99308.97;5101967;28;19916;-69
2023/03/15 10:48:24;;;;;;;;;;;;;;;13.70;54.89;99297.81;5093471;28;19912;-70
2023/03/15 10:50:50;;;;;;;;;;;;;;;13.85;54.72;99297.03;5093298;28;19912;-70
2023/03/15 10:53:19;;;;;;;;;;;;;;;13.89;58.31;99289.25;5092965;28;19920;-67
2023/03/15 10:55:44;;;;;;;;;;;;;;;13.81;56.46;99277.97;5093170;28;19912;-70
2023/03/15 10:58:16;;;;;;;;;;;;;;;13.79;56.78;99274.50;5092867;28;19912;-68
2023/03/15 11:00:48;;;;;;;;;;;;;;;13.70;54.45;99267.53;5093518;28;19950;-66
2023/03/15 11:03:15;;;;;;;;;;;;;;;13.54;56.76;99263.13;5092936;28;20364;-67
2023/03/15 11:05:41;;;;;;;;;;;;;;;13.46;53.10;99257.03;5093082;28;19912;-70
2023/03/15 11:08:11;;;;;;;;;;;;;;;13.49;52.10;99254.47;5090374;28;19916;-70
2023/03/15 11:10:36;;;;;;;;;;;;;;;13.31;51.18;99243.09;5074214;28;19916;-66
2023/03/15 11:13:19;;;;;;;;;;;;;;;13.35;50.87;99237.06;5092817;28;20373;-69
2023/03/15 11:15:53;;;;;;;;;;;;;;;13.31;50.01;99239.63;5091425;28;20022;-67
2023/03/15 11:18:24;;;;;;;;;;;;;;;13.37;49.58;99226.72;5091622;28;19912;-66
2023/03/15 11:20:53;;;;;;;;;;;;;;;13.53;51.50;99225.09;5092865;28;19959;-72
2023/03/15 11:23:24;;;;;;;;;;;;;;;13.59;53.31;99226.00;5092762;28;19912;-72
2023/03/15 11:25:50;;;;;;;;;;;;;;;13.72;53.27;99234.72;5092487;28;19922;-71
2023/03/15 11:28:17;;;;;;;;;;;;;;;13.82;51.04;99216.56;5092092;28;20298;-68
2023/03/15 11:30:44;;;;;;;;;;;;;;;13.86;51.25;99215.75;5091966;28;20301;-67
2023/03/15 11:33:17;;;;;;;;;;;;;;;13.82;52.19;99203.59;5092048;28;20336;-65
2023/03/15 11:35:47;;;;;;;;;;;;;;;13.85;51.16;99203.63;5092592;28;19916;-64
2023/03/15 11:38:32;;;;;;;;;;;;;;;13.99;51.50;99196.72;5092215;28;19912;-65
2023/03/15 11:40:58;;;;;;;;;;;;;;;13.95;51.51;99197.59;5091564;28;19912;-65
2023/03/15 11:43:24;;;;;;;;;;;;;;;14.07;51.45;99192.44;5092465;28;19973;-65
2023/03/15 11:45:57;;;;;;;;;;;;;;;14.22;49.95;99183.81;5092221;28;20411;-72
2023/03/15 11:48:57;;;;;;;;;;;;;;;14.46;50.72;99173.44;5092184;28;19946;-66
2023/03/15 11:51:23;;;;;;;;;;;;;;;14.79;48.63;99170.00;5029160;28;19916;-66
2023/03/15 11:54:08;;;;;;;;;;;;;;;14.90;47.29;99172.56;5045137;28;19966;-68
2023/03/15 11:56:42;;;;;;;;;;;;;;;14.83;48.96;99170.88;4958170;28;19914;-67
2023/03/15 11:59:11;;;;;;;;;;;;;;;14.79;46.85;99172.59;4956618;28;19914;-66
2023/03/15 12:01:41;;;;;;;;;;;;;;;14.35;47.29;99163.91;4967441;28;19918;-66
2023/03/15 12:04:24;;;;;;;;;;;;;;;14.29;48.57;99163.91;4970468;28;19917;-70
2023/03/15 12:06:53;;;;;;;;;;;;;;;14.36;47.69;99160.44;4970038;28;20008;-68
2023/03/15 12:09:35;;;;;;;;;;;;;;;14.34;47.33;99163.91;4970510;28;19922;-70
2023/03/15 12:12:22;;;;;;;;;;;;;;;14.55;48.08;99160.44;4970154;28;19993;-69
2023/03/15 12:15:00;;;;;;;;;;;;;;;14.57;46.29;99151.78;4970440;28;19918;-68
2023/03/15 12:17:28;;;;;;;;;;;;;;;14.50;46.48;99152.66;4965216;28;19914;-69
2023/03/15 12:19:57;;;;;;;;;;;;;;;14.62;46.63;99148.34;4949194;28;20388;-66
2023/03/15 12:22:23;;;;;;;;;;;;;;;14.95;46.42;99147.44;4950723;28;20051;-69
2023/03/15 12:24:48;;;;;;;;;;;;;;;15.19;46.96;99151.72;4965899;28;19913;-67
2023/03/15 12:27:15;;;;;;;;;;;;;;;15.18;45.73;99146.53;5008841;28;20307;-68
2023/03/15 12:29:42;;;;;;;;;;;;;;;15.34;46.70;99139.56;5008330;28;19921;-68
2023/03/15 12:32:08;;;;;;;;;;;;;;;15.41;46.28;99141.22;5008662;28;19914;-66
2023/03/15 12:34:42;;;;;;;;;;;;;;;15.46;47.77;99136.88;5079651;28;19954;-69
2023/03/15 12:37:19;;;;;;;;;;;;;;;15.58;46.66;99128.16;5090788;28;19950;-69
2023/03/15 12:39:58;;;;;;;;;;;;;;;15.66;43.85;99129.00;5091374;28;19922;-67
2023/03/15 12:42:30;;;;;;;;;;;;;;;15.63;44.96;99133.34;5090762;28;19920;-68
2023/03/15 12:45:15;;;;;;;;;;;;;;;15.56;44.92;99135.09;5090962;28;19916;-69
2023/03/15 12:47:46;;;;;;;;;;;;;;;15.47;45.26;99138.59;5090497;28;19915;-69
2023/03/15 12:50:32;;;;;;;;;;;;;;;15.43;46.06;99133.44;5094014;28;19916;-68
2023/03/15 12:52:59;;;;;;;;;;;;;;;15.41;44.90;99129.97;5091001;28;19912;-69
2023/03/15 12:55:26;;;;;;;;;;;;;;;15.36;46.95;99133.47;5101776;28;19994;-69